Time;durP1;ratioP1;P1;durP2;ratioP2;P2;SDS_P1;SDS_P2;PMS_P1;PMS_P2;Temp;Humidity;BMP_temperature;BMP_pressure;BME280_temperature;BME280_humidity;BME280_pressure;Samples;Min_cycle;Max_cycle;Signal;HPM_P1;HPM_P2
2023/06/17 00:00:41;;;;;;;1.70;1.60;;;;;;;22.22;56.76;97452.13;5037397;28;20205;-28
2023/06/17 00:03:08;;;;;;;1.70;1.60;;;;;;;22.21;56.80;97446.19;5031943;28;20202;-26
2023/06/17 00:05:35;;;;;;;1.60;1.50;;;;;;;22.22;56.98;97449.56;5031543;28;20309;-28
2023/06/17 00:08:02;;;;;;;1.67;1.57;;;;;;;22.22;56.94;97444.47;5040458;28;20229;-28
2023/06/17 00:10:28;;;;;;;2.00;1.90;;;;;;;22.20;56.80;97456.38;5030987;28;20205;-27
2023/06/17 00:12:55;;;;;;;1.90;1.80;;;;;;;22.19;56.95;97441.81;5031748;28;20206;-28
2023/06/17 00:15:22;;;;;;;1.77;1.67;;;;;;;22.18;56.78;97448.66;5033998;28;20240;-28
2023/06/17 00:17:50;;;;;;;1.70;1.60;;;;;;;22.18;56.95;97438.41;5035993;28;20232;-28
2023/06/17 00:20:16;;;;;;;1.90;1.80;;;;;;;22.16;57.08;97426.38;5031469;28;20207;-28
2023/06/17 00:22:44;;;;;;;2.00;1.90;;;;;;;22.20;56.93;97441.84;5042536;28;20252;-28
2023/06/17 00:25:12;;;;;;;1.67;1.57;;;;;;;22.21;57.29;97430.81;5041329;28;20221;-28
2023/06/17 00:30:12;;;;;;;1.80;1.70;;;;;;;22.21;57.20;97433.38;5049455;28;20247;-25
2023/06/17 00:32:40;;;;;;;1.60;1.50;;;;;;;22.19;56.98;97429.03;5059187;28;20612;-25
2023/06/17 00:35:07;;;;;;;1.80;1.70;;;;;;;22.21;56.88;97429.94;5047775;28;20193;-26
2023/06/17 00:37:34;;;;;;;1.70;1.60;;;;;;;22.21;56.72;97427.38;5050381;28;20208;-26
2023/06/17 00:40:05;;;;;;;1.83;1.73;;;;;;;22.21;56.86;97419.69;5033326;28;20213;-25
2023/06/17 00:42:32;;;;;;;1.70;1.60;;;;;;;22.21;56.78;97422.25;5035231;28;20645;-26
2023/06/17 00:44:59;;;;;;;1.70;1.60;;;;;;;22.21;56.89;97424.81;5034119;28;20217;-25
2023/06/17 00:47:26;;;;;;;1.70;1.60;;;;;;;22.18;56.97;97420.50;5033750;28;20292;-25
2023/06/17 00:49:53;;;;;;;1.90;1.80;;;;;;;22.21;56.89;97418.00;5022392;28;20606;-25
2023/06/17 00:52:20;;;;;;;1.83;1.73;;;;;;;22.21;56.89;97422.25;5033933;28;20255;-25
2023/06/17 00:55:08;;;;;;;1.80;1.70;;;;;;;22.21;56.88;97423.13;5032628;28;20216;-25
2023/06/17 00:57:35;;;;;;;1.90;1.80;;;;;;;22.21;56.76;97423.13;5037947;28;20204;-25
2023/06/17 01:00:05;;;;;;;1.63;1.53;;;;;;;22.21;56.92;97420.56;5036111;28;20210;-25
2023/06/17 01:02:32;;;;;;;1.80;1.70;;;;;;;22.21;56.85;97418.00;5037709;28;20633;-26
2023/06/17 01:04:58;;;;;;;1.70;1.60;;;;;;;22.22;56.83;97429.09;5036682;28;20612;-25
2023/06/17 01:07:58;;;;;;;1.70;1.60;;;;;;;22.21;56.94;97420.56;5042338;28;20271;-25
2023/06/17 01:10:48;;;;;;;1.90;1.80;;;;;;;22.21;56.85;97423.13;5029284;28;20198;-26
2023/06/17 01:13:15;;;;;;;1.63;1.53;;;;;;;22.22;56.80;97423.97;5018152;28;20237;-25
2023/06/17 01:15:43;;;;;;;1.83;1.73;;;;;;;22.20;57.06;97415.41;5021393;28;20193;-25
2023/06/17 01:18:09;;;;;;;1.70;1.60;;;;;;;22.20;56.97;97417.97;5018880;28;20225;-25
2023/06/17 01:20:37;;;;;;;1.80;1.70;;;;;;;22.20;56.96;97412.84;5016322;28;20629;-25
2023/06/17 01:23:05;;;;;;;1.70;1.60;;;;;;;22.22;56.92;97418.84;5016181;28;20660;-25
2023/06/17 01:25:32;;;;;;;1.70;1.60;;;;;;;22.19;56.86;97408.53;5033242;28;20228;-25
2023/06/17 01:28:15;;;;;;;1.90;1.80;;;;;;;22.21;56.80;97409.47;5016015;28;20287;-24
2023/06/17 01:30:44;;;;;;;1.70;1.60;;;;;;;22.21;56.90;97412.03;5053529;28;20560;-24
2023/06/17 01:33:12;;;;;;;1.80;1.70;;;;;;;22.21;56.99;97417.13;5049463;28;20694;-32
2023/06/17 01:35:38;;;;;;;1.70;1.60;;;;;;;22.19;57.00;97414.53;5044978;28;20229;-25
2023/06/17 01:38:09;;;;;;;1.70;1.60;;;;;;;22.10;56.88;97401.50;5024982;28;20291;-25
2023/06/17 01:40:36;;;;;;;1.77;1.67;;;;;;;22.16;56.95;97411.03;5015848;28;20241;-25
2023/06/17 01:43:03;;;;;;;1.70;1.60;;;;;;;22.17;56.84;97413.63;5031901;28;20251;-26
2023/06/17 01:45:29;;;;;;;1.80;1.70;;;;;;;22.16;57.07;97411.91;5016121;28;20619;-25
2023/06/17 01:47:56;;;;;;;1.70;1.60;;;;;;;22.18;56.85;97414.50;5005105;28;20236;-25
2023/06/17 01:50:22;;;;;;;1.80;1.70;;;;;;;22.21;56.86;97415.47;5034980;28;20287;-25
2023/06/17 01:52:49;;;;;;;1.83;1.73;;;;;;;22.21;56.95;97417.13;5041137;28;20205;-25
2023/06/17 01:55:16;;;;;;;2.07;1.80;;;;;;;22.20;56.98;97406.03;5049887;28;20239;-26
2023/06/17 01:57:43;;;;;;;1.70;1.60;;;;;;;22.21;56.89;97412.91;5043291;28;20201;-25
2023/06/17 02:00:12;;;;;;;2.17;1.70;;;;;;;22.21;56.85;97402.66;5048778;28;20197;-26
2023/06/17 02:02:39;;;;;;;1.80;1.70;;;;;;;22.22;56.79;97396.69;5045334;28;20243;-25
2023/06/17 02:05:07;;;;;;;1.80;1.70;;;;;;;22.21;56.86;97401.78;5049606;28;20312;-25
2023/06/17 02:07:34;;;;;;;1.80;1.70;;;;;;;22.21;56.83;97397.53;5046347;28;20694;-25
2023/06/17 02:10:03;;;;;;;2.13;1.93;;;;;;;22.22;56.58;97393.25;5045908;28;20231;-26
2023/06/17 02:12:30;;;;;;;1.90;1.80;;;;;;;22.22;56.93;97395.81;5045807;28;20201;-25
2023/06/17 02:14:57;;;;;;;2.10;1.90;;;;;;;22.22;56.87;97395.81;5045891;28;20247;-25
2023/06/17 02:17:27;;;;;;;1.60;1.50;;;;;;;22.21;56.98;97397.53;5046509;28;20209;-25
2023/06/17 02:19:54;;;;;;;2.00;1.90;;;;;;;22.23;56.91;97400.13;5045992;28;20304;-25
2023/06/17 02:22:21;;;;;;;1.67;1.57;;;;;;;22.23;56.88;97400.13;5056766;28;20196;-26
2023/06/17 02:24:48;;;;;;;1.77;1.67;;;;;;;22.23;56.90;97395.84;5046446;28;20200;-25
2023/06/17 02:27:16;;;;;;;1.73;1.63;;;;;;;22.23;56.91;97395.00;5049734;28;20201;-25
2023/06/17 02:29:43;;;;;;;1.90;1.80;;;;;;;22.23;56.89;97392.47;5043278;28;20226;-25
2023/06/17 02:32:10;;;;;;;1.90;1.80;;;;;;;22.23;57.00;97400.97;5047437;28;20258;-26
2023/06/17 02:34:37;;;;;;;1.90;1.80;;;;;;;22.23;56.94;97395.00;5028560;28;20287;-25
2023/06/17 02:37:04;;;;;;;1.77;1.67;;;;;;;22.23;56.76;97395.84;5046894;28;20196;-24
2023/06/17 02:39:30;;;;;;;1.63;1.53;;;;;;;22.24;57.03;97396.72;5048628;28;20641;-25
2023/06/17 02:41:57;;;;;;;1.83;1.73;;;;;;;22.23;56.90;97398.41;5046688;28;20629;-25
2023/06/17 02:44:23;;;;;;;1.83;1.73;;;;;;;22.23;56.68;97400.97;5031682;28;20201;-24
2023/06/17 02:46:50;;;;;;;1.90;1.80;;;;;;;22.23;56.86;97410.38;5042299;28;20217;-24
2023/06/17 02:49:17;;;;;;;1.70;1.60;;;;;;;22.23;56.88;97407.81;5045489;28;20224;-25
2023/06/17 02:51:44;;;;;;;1.70;1.60;;;;;;;22.23;57.05;97405.25;5044853;28;20539;-25
2023/06/17 02:54:11;;;;;;;1.90;1.80;;;;;;;22.24;56.93;97415.53;5047336;28;20224;-25
2023/06/17 02:56:37;;;;;;;2.00;1.90;;;;;;;22.24;56.95;97414.66;5027754;28;20625;-26
2023/06/17 02:59:04;;;;;;;1.60;1.50;;;;;;;22.23;57.02;97412.94;5027904;28;20279;-25
2023/06/17 03:01:31;;;;;;;1.80;1.70;;;;;;;22.23;56.91;97412.94;5049829;28;20193;-25
2023/06/17 03:04:03;;;;;;;2.17;2.07;;;;;;;22.23;56.95;97411.22;5051687;28;20201;-24
2023/06/17 03:06:33;;;;;;;1.90;1.80;;;;;;;22.22;56.97;97408.63;5051556;28;20239;-26
2023/06/17 03:09:01;;;;;;;2.07;1.73;;;;;;;22.21;56.95;97410.34;5051531;28;20224;-25
2023/06/17 03:11:28;;;;;;;1.90;1.80;;;;;;;22.20;57.08;97407.75;5053633;28;20201;-25
2023/06/17 03:13:55;;;;;;;1.93;1.83;;;;;;;22.18;56.97;97400.03;5050675;28;20580;-25
2023/06/17 03:16:24;;;;;;;1.83;1.70;;;;;;;22.19;57.15;97411.97;5044335;28;20251;-25
2023/06/17 03:18:51;;;;;;;1.60;1.50;;;;;;;22.19;57.00;97405.97;5037924;28;20245;-25
2023/06/17 03:21:17;;;;;;;1.90;1.80;;;;;;;22.21;57.30;97404.34;5023238;28;20208;-25
2023/06/17 03:23:45;;;;;;;2.57;1.70;;;;;;;22.20;56.92;97400.06;5044116;28;20610;-25
2023/06/17 03:26:12;;;;;;;1.73;1.63;;;;;;;22.23;56.91;97405.25;5043605;28;20232;-25
2023/06/17 03:28:39;;;;;;;1.60;1.50;;;;;;;22.23;56.89;97400.13;5040450;28;20229;-25
2023/06/17 03:31:06;;;;;;;1.80;1.70;;;;;;;22.23;56.88;97405.25;5051651;28;20212;-26
2023/06/17 03:33:33;;;;;;;1.90;1.80;;;;;;;22.22;57.01;97409.50;5051737;28;20250;-25
2023/06/17 03:35:59;;;;;;;2.00;1.90;;;;;;;22.23;56.97;97411.22;5051641;28;20193;-25
2023/06/17 03:38:26;;;;;;;1.93;1.83;;;;;;;22.23;57.01;97407.81;5051098;28;20255;-25
2023/06/17 03:40:52;;;;;;;1.80;1.70;;;;;;;22.23;56.84;97416.34;5051519;28;20251;-24
2023/06/17 03:43:19;;;;;;;2.00;1.90;;;;;;;22.23;56.88;97412.94;5051893;28;20197;-25
2023/06/17 03:45:46;;;;;;;1.80;1.70;;;;;;;22.22;57.01;97409.50;5051353;28;20705;-25
2023/06/17 03:48:12;;;;;;;1.80;1.70;;;;;;;22.23;56.85;97413.78;5051154;28;20213;-25
2023/06/17 03:50:39;;;;;;;1.80;1.70;;;;;;;22.22;57.06;97409.50;5051360;28;20238;-25
2023/06/17 03:53:08;;;;;;;1.70;1.60;;;;;;;22.23;57.06;97418.06;5051409;28;20209;-25
2023/06/17 03:55:36;;;;;;;1.87;1.77;;;;;;;22.22;56.96;97417.19;5052161;28;20204;-26
2023/06/17 03:58:02;;;;;;;1.90;1.80;;;;;;;22.23;56.99;97415.50;5053175;28;20580;-25
2023/06/17 04:00:29;;;;;;;1.90;1.80;;;;;;;22.23;56.94;97407.81;5051260;28;20342;-25
2023/06/17 04:02:56;;;;;;;2.00;1.90;;;;;;;22.21;56.96;97406.91;5051063;28;20555;-25
2023/06/17 04:05:31;;;;;;;1.80;1.70;;;;;;;22.22;57.38;97409.50;5052006;28;20203;-25
2023/06/17 04:07:58;;;;;;;2.07;1.97;;;;;;;22.22;57.00;97412.06;5051331;28;20589;-25
2023/06/17 04:10:25;;;;;;;1.70;1.60;;;;;;;22.23;56.95;97416.34;5055070;28;20197;-26
2023/06/17 04:12:52;;;;;;;2.20;2.00;;;;;;;22.23;57.04;97420.63;5052770;28;20208;-25
2023/06/17 04:15:19;;;;;;;2.07;1.97;;;;;;;22.23;56.70;97415.50;5057438;28;20560;-24
2023/06/17 04:17:45;;;;;;;1.70;1.60;;;;;;;22.23;57.02;97418.06;5055060;28;20201;-25
2023/06/17 04:20:12;;;;;;;1.83;1.73;;;;;;;22.23;57.04;97412.94;5055085;28;20197;-25
2023/06/17 04:22:39;;;;;;;1.97;1.77;;;;;;;22.22;56.90;97416.28;5054864;28;20719;-25
2023/06/17 04:25:07;;;;;;;1.90;1.80;;;;;;;22.22;56.96;97414.63;5056059;28;20197;-25
2023/06/17 04:27:34;;;;;;;1.83;1.73;;;;;;;22.23;57.01;97415.50;5055836;28;20274;-25
2023/06/17 04:30:01;;;;;;;1.90;1.80;;;;;;;22.22;57.46;97417.19;5036185;28;20210;-25
2023/06/17 04:32:28;;;;;;;2.00;1.90;;;;;;;22.22;56.85;97406.94;5034494;28;20197;-25
2023/06/17 04:34:55;;;;;;;2.00;1.90;;;;;;;22.23;56.87;97410.38;5034761;28;20193;-26
2023/06/17 04:37:22;;;;;;;1.97;1.87;;;;;;;22.20;57.04;97405.19;5034539;28;20577;-24
2023/06/17 04:39:48;;;;;;;1.77;1.67;;;;;;;22.20;56.97;97407.75;5034551;28;20268;-25
2023/06/17 04:42:16;;;;;;;1.90;1.80;;;;;;;22.20;57.09;97410.31;5034610;28;20213;-25
2023/06/17 04:44:43;;;;;;;1.90;1.80;;;;;;;22.19;57.06;97405.97;5034381;28;20661;-25
2023/06/17 04:47:10;;;;;;;1.90;1.80;;;;;;;22.19;56.75;97416.22;5034097;28;20213;-25
2023/06/17 04:49:41;;;;;;;1.80;1.70;;;;;;;22.20;57.11;97423.94;5034393;28;20221;-25
2023/06/17 04:52:08;;;;;;;2.00;1.90;;;;;;;22.21;57.14;97418.00;5034590;28;20236;-25
2023/06/17 04:54:35;;;;;;;2.00;1.90;;;;;;;22.22;56.98;97416.28;5034283;28;20220;-25
2023/06/17 04:57:02;;;;;;;1.90;1.80;;;;;;;22.22;56.98;97418.84;5034180;28;20201;-26
2023/06/17 04:59:29;;;;;;;1.93;1.80;;;;;;;22.21;56.96;97409.47;5033802;28;20642;-25
2023/06/17 05:01:56;;;;;;;1.93;1.83;;;;;;;22.23;56.99;97415.50;5034452;28;20549;-25
2023/06/17 05:04:22;;;;;;;1.80;1.70;;;;;;;22.22;56.97;97414.63;5009419;28;20197;-25
2023/06/17 05:06:49;;;;;;;2.07;1.97;;;;;;;22.23;57.04;97421.47;5034240;28;20222;-25
2023/06/17 05:09:16;;;;;;;2.00;1.80;;;;;;;22.22;57.01;97424.84;5033669;28;20765;-25
2023/06/17 05:11:42;;;;;;;1.90;1.80;;;;;;;22.22;57.05;97414.63;5034040;28;20210;-24
2023/06/17 05:14:09;;;;;;;1.80;1.70;;;;;;;22.22;57.03;97414.63;5028040;28;20714;-25
2023/06/17 05:16:36;;;;;;;2.00;1.90;;;;;;;22.22;56.95;97414.63;5034227;28;20201;-24
2023/06/17 05:19:03;;;;;;;1.87;1.77;;;;;;;22.22;57.03;97411.19;5033659;28;20224;-25
2023/06/17 05:21:29;;;;;;;1.80;1.70;;;;;;;22.22;57.00;97419.75;5033579;28;20224;-26
2023/06/17 05:23:56;;;;;;;1.90;1.80;;;;;;;22.22;57.15;97418.84;5033328;28;20198;-25
2023/06/17 05:26:22;;;;;;;1.90;1.80;;;;;;;22.22;57.14;97414.63;5033437;28;20224;-24
2023/06/17 05:28:49;;;;;;;2.00;1.90;;;;;;;22.23;57.36;97425.72;5033273;28;20260;-25
2023/06/17 05:31:15;;;;;;;1.90;1.80;;;;;;;22.23;57.01;97425.72;5033720;28;20296;-25
2023/06/17 05:33:42;;;;;;;1.93;1.83;;;;;;;22.21;57.26;97423.13;5033596;28;20633;-25
2023/06/17 05:36:09;;;;;;;1.80;1.70;;;;;;;22.22;57.02;97422.28;5033769;28;20189;-25
2023/06/17 05:38:35;;;;;;;1.80;1.70;;;;;;;22.23;57.13;97426.56;5033128;28;20225;-25
2023/06/17 05:41:02;;;;;;;1.80;1.70;;;;;;;22.24;56.98;97437.69;5033680;28;20194;-25
2023/06/17 05:43:29;;;;;;;1.97;1.87;;;;;;;22.23;57.01;97423.16;5033503;28;20202;-27
2023/06/17 05:45:55;;;;;;;1.90;1.80;;;;;;;22.23;57.04;97429.13;5033403;28;20271;-25
2023/06/17 05:48:22;;;;;;;1.90;1.80;;;;;;;22.23;56.71;97429.13;5033041;28;20245;-25
2023/06/17 05:50:51;;;;;;;1.90;1.80;;;;;;;22.23;57.09;97426.56;5033123;28;20201;-25
2023/06/17 05:53:18;;;;;;;1.93;1.83;;;;;;;22.23;57.03;97433.41;5033127;28;20719;-25
2023/06/17 05:55:45;;;;;;;1.73;1.63;;;;;;;22.23;56.91;97438.53;5033344;28;20624;-24
2023/06/17 05:58:11;;;;;;;1.70;1.60;;;;;;;22.23;57.05;97434.25;5032910;28;20218;-25
2023/06/17 06:00:38;;;;;;;1.73;1.63;;;;;;;22.22;57.03;97429.97;5018322;28;20209;-25
2023/06/17 06:03:04;;;;;;;2.33;2.13;;;;;;;22.22;57.13;97435.09;5033053;28;20247;-25
2023/06/17 06:05:31;;;;;;;1.90;1.80;;;;;;;22.23;57.11;97434.25;5032878;28;20263;-25
2023/06/17 06:07:58;;;;;;;2.13;1.93;;;;;;;22.21;57.00;97433.38;5032527;28;20229;-25
2023/06/17 06:10:27;;;;;;;1.70;1.60;;;;;;;22.21;57.13;97432.50;5032749;28;20198;-25
2023/06/17 06:12:54;;;;;;;1.90;1.80;;;;;;;22.19;57.17;97437.56;5033027;28;20202;-25
2023/06/17 06:15:21;;;;;;;1.97;1.87;;;;;;;22.20;57.06;97444.41;5032741;28;20202;-25
2023/06/17 06:17:47;;;;;;;1.90;1.80;;;;;;;22.20;57.11;97443.56;5032236;28;20193;-26
2023/06/17 06:20:14;;;;;;;1.80;1.70;;;;;;;22.20;57.06;97446.97;5032968;28;20225;-24
2023/06/17 06:22:41;;;;;;;1.80;1.70;;;;;;;22.21;57.03;97447.84;5032841;28;20589;-25
2023/06/17 06:25:07;;;;;;;1.93;1.80;;;;;;;22.22;56.94;97447.03;5032692;28;20198;-25
2023/06/17 06:27:34;;;;;;;1.80;1.70;;;;;;;22.20;56.99;97449.53;5031358;28;20644;-25
2023/06/17 06:30:01;;;;;;;1.80;1.70;;;;;;;22.22;56.96;97447.03;5072431;23;20218;-28
2023/06/17 06:32:28;;;;;;;1.87;1.77;;;;;;;22.22;57.11;97455.56;5072685;28;20204;-28
2023/06/17 06:34:54;;;;;;;1.80;1.70;;;;;;;22.22;57.14;97460.69;5072557;28;20203;-28
2023/06/17 06:37:21;;;;;;;1.80;1.70;;;;;;;22.23;57.01;97456.44;5072030;28;20253;-28
2023/06/17 06:39:48;;;;;;;1.80;1.70;;;;;;;22.21;57.15;97450.41;5072440;28;20694;-28
2023/06/17 06:42:15;;;;;;;1.90;1.80;;;;;;;22.17;57.05;97440.94;5072520;28;20196;-31
2023/06/17 06:44:42;;;;;;;1.80;1.70;;;;;;;22.24;57.16;97455.63;5059505;28;20204;-28
2023/06/17 06:47:08;;;;;;;1.80;1.70;;;;;;;22.21;57.12;97452.97;5066786;28;20689;-30
2023/06/17 06:49:35;;;;;;;1.97;1.87;;;;;;;22.22;57.16;97458.13;5069387;28;20602;-28
2023/06/17 06:52:02;;;;;;;1.80;1.70;;;;;;;22.20;57.01;97459.78;5072062;28;20257;-29
2023/06/17 06:54:28;;;;;;;1.77;1.67;;;;;;;22.23;57.45;97456.44;5036758;28;20213;-29
2023/06/17 06:56:55;;;;;;;1.77;1.67;;;;;;;22.21;56.96;97458.97;5072954;28;20200;-28
2023/06/17 06:59:22;;;;;;;2.67;1.77;;;;;;;22.22;56.93;97453.00;5064104;28;20220;-29
2023/06/17 07:01:48;;;;;;;1.60;1.50;;;;;;;22.23;57.00;97456.44;5064695;28;20617;-28
2023/06/17 07:04:15;;;;;;;1.70;1.60;;;;;;;22.23;57.06;97453.88;5072765;28;20196;-28
2023/06/17 07:06:42;;;;;;;2.00;1.90;;;;;;;22.21;57.08;97450.41;5060955;28;20318;-28
2023/06/17 07:09:08;;;;;;;1.90;1.80;;;;;;;22.21;57.13;97448.72;5071055;28;20228;-29
2023/06/17 07:11:35;;;;;;;1.87;1.77;;;;;;;22.22;57.09;97457.25;5063923;28;20269;-29
2023/06/17 07:14:01;;;;;;;2.10;2.00;;;;;;;22.23;57.12;97456.44;5070653;28;20531;-29
2023/06/17 07:16:28;;;;;;;1.90;1.80;;;;;;;22.23;57.20;97461.56;5072332;28;20572;-28
2023/06/17 07:18:55;;;;;;;1.87;1.77;;;;;;;22.23;57.05;97464.97;5072322;28;20242;-29
2023/06/17 07:21:21;;;;;;;1.90;1.80;;;;;;;22.24;57.16;97466.72;5055909;28;20201;-29
2023/06/17 07:23:48;;;;;;;1.70;1.60;;;;;;;22.23;57.08;97464.97;5065102;28;20208;-28
2023/06/17 07:26:14;;;;;;;1.83;1.73;;;;;;;22.19;56.99;97452.06;5067560;28;20235;-28
2023/06/17 07:28:41;;;;;;;2.10;1.90;;;;;;;22.23;57.00;97461.56;5069673;28;20274;-28
2023/06/17 07:31:08;;;;;;;1.90;1.80;;;;;;;22.23;57.10;97456.44;5066830;28;20227;-29
2023/06/17 07:33:35;;;;;;;2.40;2.20;;;;;;;22.23;57.18;97456.44;5068828;28;20208;-28
2023/06/17 07:36:01;;;;;;;1.93;1.83;;;;;;;22.23;57.66;97456.44;5065896;28;20578;-29
2023/06/17 07:38:28;;;;;;;1.80;1.70;;;;;;;22.17;57.31;97441.78;5063543;28;20220;-29
2023/06/17 07:40:55;;;;;;;1.77;1.67;;;;;;;22.21;57.19;97466.66;5070714;28;20205;-28
2023/06/17 07:43:22;;;;;;;1.80;1.70;;;;;;;22.20;57.06;97456.38;5072239;28;20204;-29
2023/06/17 07:45:48;;;;;;;1.90;1.80;;;;;;;22.19;57.28;97455.50;5071846;28;20253;-29
2023/06/17 07:48:15;;;;;;;2.00;1.90;;;;;;;22.20;57.21;97456.38;5067455;28;20227;-28
2023/06/17 07:50:41;;;;;;;1.60;1.50;;;;;;;22.20;57.25;97456.38;5074231;28;20231;-28
2023/06/17 07:53:08;;;;;;;1.60;1.50;;;;;;;22.20;57.28;97459.78;5076474;28;20200;-28
2023/06/17 07:55:35;;;;;;;1.60;1.50;;;;;;;22.22;57.11;97457.25;5071391;28;20245;-28
2023/06/17 07:58:02;;;;;;;1.90;1.80;;;;;;;22.22;57.20;97449.56;5071163;28;20200;-28
2023/06/17 08:00:29;;;;;;;1.87;1.73;;;;;;;22.21;57.03;97451.28;5068403;28;20204;-28
2023/06/17 08:02:56;;;;;;;1.47;1.37;;;;;;;22.23;57.12;97451.34;5076299;28;20211;-29
2023/06/17 08:05:22;;;;;;;1.80;1.70;;;;;;;22.24;57.16;97455.63;5076200;28;20227;-28
2023/06/17 08:07:49;;;;;;;1.73;1.63;;;;;;;22.22;57.05;97442.78;5075425;28;20228;-28
2023/06/17 08:10:16;;;;;;;1.60;1.50;;;;;;;22.21;57.27;97451.28;5068800;28;20247;-28
2023/06/17 08:12:44;;;;;;;1.70;1.60;;;;;;;22.22;57.11;97447.03;5070078;28;20204;-29
2023/06/17 08:15:10;;;;;;;1.90;1.80;;;;;;;22.22;57.10;97447.03;5070361;28;20672;-28
2023/06/17 08:17:37;;;;;;;1.90;1.80;;;;;;;22.22;57.10;97444.47;5067554;28;20206;-29
2023/06/17 08:20:04;;;;;;;1.90;1.80;;;;;;;22.17;57.16;97431.53;5062373;28;20303;-28
2023/06/17 08:22:31;;;;;;;1.80;1.70;;;;;;;22.22;57.10;97440.22;5066759;28;20211;-30
2023/06/17 08:24:57;;;;;;;1.80;1.70;;;;;;;21.98;57.19;97395.22;5072244;28;20577;-32
2023/06/17 08:27:24;;;;;;;1.70;1.60;;;;;;;22.20;57.19;97429.06;5064670;28;20282;-29
2023/06/17 08:29:51;;;;;;;1.70;1.60;;;;;;;22.22;57.10;97426.53;5067883;28;20228;-28
2023/06/17 08:32:17;;;;;;;1.60;1.50;;;;;;;22.22;57.08;97432.53;5075448;28;20204;-28
2023/06/17 08:34:44;;;;;;;1.80;1.70;;;;;;;22.23;57.10;97430.84;5075431;28;20204;-29
2023/06/17 08:37:11;;;;;;;1.87;1.60;;;;;;;22.19;57.04;97426.47;5060704;28;20613;-29
2023/06/17 08:39:39;;;;;;;1.83;1.73;;;;;;;22.24;57.16;97424.91;5074431;28;20227;-29
2023/06/17 08:42:07;;;;;;;1.50;1.40;;;;;;;22.22;56.97;97422.28;5057682;28;20254;-28
2023/06/17 08:44:34;;;;;;;1.80;1.70;;;;;;;22.23;57.26;97418.91;5055517;28;20204;-28
2023/06/17 08:47:03;;;;;;;1.80;1.70;;;;;;;22.24;57.02;97417.22;5033953;28;20246;-29
2023/06/17 08:49:30;;;;;;;1.70;1.60;;;;;;;22.19;57.15;97408.53;5049827;28;20291;-29
2023/06/17 08:51:59;;;;;;;1.80;1.70;;;;;;;22.24;57.12;97412.09;5066586;28;20208;-28
2023/06/17 08:54:27;;;;;;;1.70;1.60;;;;;;;22.21;57.13;97405.22;5063685;28;20200;-28
2023/06/17 08:56:54;;;;;;;1.70;1.60;;;;;;;22.23;57.44;97407.81;5072011;28;20212;-28
2023/06/17 08:59:20;;;;;;;1.60;1.50;;;;;;;22.19;57.09;97400.88;5066141;28;20259;-28
2023/06/17 09:01:47;;;;;;;1.87;1.77;;;;;;;22.20;57.06;97403.47;5073519;28;20211;-28
2023/06/17 09:04:14;;;;;;;1.63;1.53;;;;;;;22.22;57.12;97394.13;5040536;28;20207;-35
2023/06/17 09:06:40;;;;;;;1.90;1.80;;;;;;;22.24;57.13;97414.66;5063953;28;20250;-28
2023/06/17 09:09:07;;;;;;;1.70;1.60;;;;;;;22.19;57.24;97404.31;5074534;28;20224;-28
2023/06/17 09:11:34;;;;;;;1.70;1.60;;;;;;;22.01;56.91;97370.56;5071694;28;20212;-28
2023/06/17 09:14:01;;;;;;;1.70;1.60;;;;;;;22.21;57.12;97396.66;5074617;28;20659;-29
2023/06/17 09:16:33;;;;;;;2.13;1.70;;;;;;;22.21;57.18;97396.66;5071411;28;20204;-28
2023/06/17 09:19:02;;;;;;;1.70;1.60;;;;;;;22.17;57.24;97393.16;5045085;28;20221;-28
2023/06/17 09:21:30;;;;;;;1.70;1.60;;;;;;;22.20;57.15;97405.19;5071590;28;20196;-28
2023/06/17 09:23:57;;;;;;;1.63;1.53;;;;;;;22.22;57.25;97408.63;5063239;28;20254;-28
2023/06/17 09:26:31;;;;;;;1.70;1.60;;;;;;;22.22;57.16;97396.69;5066094;28;20219;-28
2023/06/17 09:29:03;;;;;;;1.60;1.50;;;;;;;22.21;57.08;97397.53;5072682;28;20220;-29
2023/06/17 09:31:30;;;;;;;1.67;1.57;;;;;;;22.21;57.19;97387.28;5066515;28;20274;-29
2023/06/17 09:33:57;;;;;;;1.70;1.60;;;;;;;22.20;57.10;97388.09;5074024;28;20200;-29
2023/06/17 09:36:25;;;;;;;1.70;1.60;;;;;;;22.22;57.18;97390.69;5074097;28;20204;-28
2023/06/17 09:38:52;;;;;;;1.60;1.50;;;;;;;22.23;57.17;97387.34;5055982;28;20224;-29
2023/06/17 09:41:20;;;;;;;1.93;1.83;;;;;;;22.24;57.28;97396.72;5074184;28;20204;-28
2023/06/17 09:43:53;;;;;;;1.90;1.80;;;;;;;22.22;57.26;97383.91;5068886;28;20204;-28
2023/06/17 09:46:29;;;;;;;1.50;1.40;;;;;;;22.22;57.18;97381.34;5068281;28;20208;-28
2023/06/17 09:48:57;;;;;;;1.50;1.40;;;;;;;22.24;57.17;97386.50;5071144;28;20232;-29
2023/06/17 09:51:25;;;;;;;1.67;1.57;;;;;;;22.22;57.13;97378.78;5073854;28;20287;-29
2023/06/17 09:53:52;;;;;;;1.70;1.60;;;;;;;22.23;57.30;97382.22;5066375;28;20688;-28
2023/06/17 09:56:20;;;;;;;1.30;1.30;;;;;;;22.19;57.28;97373.59;5073057;28;20576;-29
2023/06/17 09:58:47;;;;;;;1.77;1.67;;;;;;;22.24;57.26;97389.06;5039406;28;20718;-30
2023/06/17 10:01:14;;;;;;;1.70;1.60;;;;;;;22.23;57.14;97374.53;5072382;28;20265;-28
2023/06/17 10:03:40;;;;;;;1.77;1.67;;;;;;;22.24;57.11;97377.13;5073111;28;20211;-28
2023/06/17 10:06:11;;;;;;;1.50;1.40;;;;;;;22.23;57.11;97371.97;5042437;28;20205;-28
2023/06/17 10:08:42;;;;;;;1.67;1.57;;;;;;;22.22;57.09;97375.34;5070980;28;20270;-29
2023/06/17 10:11:10;;;;;;;1.47;1.37;;;;;;;22.24;57.15;97371.13;5048549;28;20209;-28
2023/06/17 10:13:36;;;;;;;1.70;1.60;;;;;;;22.23;57.10;97371.97;5055857;28;20203;-29
2023/06/17 10:16:04;;;;;;;1.67;1.57;;;;;;;22.24;57.02;97374.56;5064199;28;20254;-29
2023/06/17 10:18:32;;;;;;;1.60;1.50;;;;;;;22.24;57.36;97369.44;5055727;28;20228;-29
2023/06/17 10:20:58;;;;;;;1.90;1.80;;;;;;;22.24;57.17;97361.78;5055796;28;20212;-28
2023/06/17 10:23:26;;;;;;;1.60;1.50;;;;;;;22.24;57.37;97361.78;5055795;28;20230;-29
2023/06/17 10:25:53;;;;;;;1.60;1.50;;;;;;;22.24;57.11;97364.34;5070245;28;20208;-29
2023/06/17 10:28:20;;;;;;;1.70;1.60;;;;;;;22.23;57.02;97352.34;5049505;28;20270;-29
2023/06/17 10:30:47;;;;;;;1.70;1.60;;;;;;;22.20;57.04;97348.88;5064561;28;20587;-28
2023/06/17 10:33:14;;;;;;;1.60;1.50;;;;;;;22.24;57.11;97364.34;5034452;28;20201;-29
2023/06/17 10:35:41;;;;;;;1.80;1.70;;;;;;;22.25;57.03;97349.81;5071444;28;20212;-28
2023/06/17 10:38:08;;;;;;;1.90;1.80;;;;;;;22.23;57.20;97348.94;5070294;28;20200;-28
2023/06/17 10:40:50;;;;;;;1.50;1.40;;;;;;;22.23;57.18;97347.22;5067222;28;20239;-28
2023/06/17 10:43:18;;;;;;;1.60;1.50;;;;;;;22.23;57.03;97346.38;5061502;28;20200;-29
2023/06/17 10:45:51;;;;;;;1.70;1.60;;;;;;;22.22;57.27;97345.50;5044874;28;20209;-29
2023/06/17 10:48:22;;;;;;;1.53;1.43;;;;;;;22.22;57.22;97342.94;5065842;28;20243;-28
2023/06/17 10:50:56;;;;;;;1.60;1.50;;;;;;;22.21;57.35;97338.66;5071269;28;20553;-28
2023/06/17 10:53:25;;;;;;;1.60;1.50;;;;;;;22.17;57.09;97338.56;5072800;28;20618;-28
2023/06/17 10:55:52;;;;;;;1.53;1.43;;;;;;;22.20;57.20;97333.50;5051169;28;20223;-28
2023/06/17 10:58:19;;;;;;;1.50;1.40;;;;;;;22.21;57.29;97338.66;5060490;28;20204;-28
2023/06/17 11:00:45;;;;;;;1.60;1.50;;;;;;;22.23;57.04;97338.69;5068889;28;20207;-29
2023/06/17 11:03:16;;;;;;;1.70;1.60;;;;;;;22.23;57.11;97333.56;5072675;28;20208;-28
2023/06/17 11:05:43;;;;;;;1.80;1.70;;;;;;;22.24;57.09;97328.50;5072351;28;20208;-29
2023/06/17 11:08:11;;;;;;;1.70;1.60;;;;;;;22.25;57.10;97331.91;5071309;28;20216;-28
2023/06/17 11:10:37;;;;;;;1.80;1.70;;;;;;;22.23;57.15;97326.75;5072561;28;20204;-28
2023/06/17 11:13:04;;;;;;;1.47;1.37;;;;;;;22.25;57.16;97329.34;5067176;28;20205;-28
2023/06/17 11:15:31;;;;;;;1.70;1.60;;;;;;;22.25;57.14;97322.53;5067331;28;20219;-28
2023/06/17 11:17:59;;;;;;;1.90;1.80;;;;;;;22.22;57.11;97324.16;5069198;28;20253;-29
2023/06/17 11:20:30;;;;;;;1.50;1.40;;;;;;;22.24;57.15;97320.81;5072455;28;20219;-28
2023/06/17 11:22:57;;;;;;;1.70;1.60;;;;;;;22.25;57.18;97326.78;5045649;28;20200;-28
2023/06/17 11:25:24;;;;;;;1.70;1.60;;;;;;;22.23;57.49;97324.19;5058535;28;20200;-28
2023/06/17 11:28:11;;;;;;;1.70;1.60;;;;;;;22.24;57.24;97319.94;5063632;28;20216;-29
2023/06/17 11:30:39;;;;;;;1.77;1.67;;;;;;;22.24;57.12;97325.94;5042705;28;20250;-28
2023/06/17 11:33:06;;;;;;;1.57;1.47;;;;;;;22.24;57.17;97315.69;5071251;28;20599;-29
2023/06/17 11:35:33;;;;;;;1.70;1.60;;;;;;;22.24;56.61;97314.81;5067767;28;20205;-29
2023/06/17 11:38:00;;;;;;;1.63;1.53;;;;;;;22.25;57.41;97311.41;5052037;28;20203;-28